Main page
METAR-TAF:

METAR-TAF

Airports :

New Bedford Regional Airport

New Bedford, Massachusetts, United States

latitude: 41-40-31N, longitude: 070-57-25W, elevation: 79 ft

Current weather observation

The report was made 40 minutes ago, at 18:53 UTC
Wind 22 mph from the Southwest with gusts up to 33 mph
Temperature 63°F
Humidity 94%
Pressure 29.85 in. Hg
Visibility: 9 miles
Overcast at a height of 900 ft

METAR: KEWB 191853Z 22019G29KT 9SM OVC009 17/16 A2985 RMK AO2 PK WND 20033/1806 SLP107 T01720161

Time: 15:33 (19:33 UTC)


TAF: missing

Weather observations and forecasts of more than 4000 airports (METAR and TAF reports).

The available stations are represented by yellow and red dots on the map.

Hover mouse over dot to see the name of the station.

Then click to see weather observations and forecasts.

To change the map : click on the green buttons with a black cross to zoom in, on the green button with a dash to zoom out, or on the green arrows for adjacent maps.


METAR-TAF: